Time;durP1;ratioP1;P1;durP2;ratioP2;P2;SDS_P1;SDS_P2;PMS_P1;PMS_P2;Temp;Humidity;BMP_temperature;BMP_pressure;BME280_temperature;BME280_humidity;BME280_pressure;Samples;Min_cycle;Max_cycle;Signal;HPM_P1;HPM_P2
2023/11/01 00:01:18;;;;;;;1.93;0.80;;;9.20;99.90;;;;;;4891390;29;20061;-89
2023/11/01 00:03:45;;;;;;;1.17;0.80;;;9.10;99.90;;;;;;4897386;29;20035;-90
2023/11/01 00:06:10;;;;;;;3.53;0.87;;;9.10;99.90;;;;;;4908363;29;20104;-92
2023/11/01 00:08:36;;;;;;;4.03;0.90;;;9.10;99.90;;;;;;4920186;29;20024;-92
2023/11/01 00:11:01;;;;;;;2.33;0.90;;;9.10;99.90;;;;;;4921064;29;20084;-90
2023/11/01 00:13:28;;;;;;;0.83;0.77;;;9.10;99.90;;;;;;4902039;29;20036;-89
2023/11/01 00:15:54;;;;;;;1.80;0.63;;;9.10;99.90;;;;;;4887711;29;20024;-90
2023/11/01 00:18:19;;;;;;;3.17;1.03;;;9.00;99.90;;;;;;4885388;29;20518;-90
2023/11/01 00:20:45;;;;;;;0.93;0.70;;;9.00;99.90;;;;;;4884724;29;20160;-90
2023/11/01 00:23:11;;;;;;;5.67;1.80;;;9.00;99.90;;;;;;4884820;29;20454;-90
2023/11/01 00:25:36;;;;;;;1.43;0.70;;;9.00;99.90;;;;;;4884116;29;20275;-91
2023/11/01 00:28:02;;;;;;;2.03;0.90;;;9.00;99.90;;;;;;4884567;29;20032;-90
2023/11/01 00:30:27;;;;;;;2.70;0.90;;;9.00;99.90;;;;;;4884071;29;20044;-90
2023/11/01 00:32:55;;;;;;;1.13;0.77;;;8.90;99.90;;;;;;4884148;29;20032;-90
2023/11/01 00:35:21;;;;;;;2.70;0.97;;;8.90;99.90;;;;;;4883761;29;20040;-91
2023/11/01 00:37:46;;;;;;;1.97;0.87;;;8.90;99.90;;;;;;4884086;29;20056;-91
2023/11/01 00:40:12;;;;;;;7.23;1.00;;;8.80;99.90;;;;;;4883080;29;20411;-90
2023/11/01 00:42:37;;;;;;;3.77;1.23;;;8.80;99.90;;;;;;4884139;29;20060;-90
2023/11/01 00:45:06;;;;;;;2.10;1.10;;;8.80;99.90;;;;;;4883275;29;20080;-90
2023/11/01 00:47:32;;;;;;;1.87;0.80;;;8.80;99.90;;;;;;4884314;29;20024;-89
2023/11/01 00:49:57;;;;;;;2.23;0.77;;;8.70;99.90;;;;;;4884803;29;20488;-91
2023/11/01 00:52:23;;;;;;;3.77;0.90;;;8.80;99.90;;;;;;4884506;29;20107;-89
2023/11/01 00:54:49;;;;;;;2.33;0.90;;;8.70;99.90;;;;;;4884280;29;20025;-90
2023/11/01 00:57:14;;;;;;;1.90;0.73;;;8.80;99.90;;;;;;4884078;29;20029;-90
2023/11/01 00:59:40;;;;;;;1.33;0.97;;;8.70;99.90;;;;;;4884066;29;20052;-90
2023/11/01 01:02:05;;;;;;;0.80;0.77;;;8.80;99.90;;;;;;4885542;29;20032;-89
2023/11/01 01:04:31;;;;;;;2.60;0.90;;;8.80;99.90;;;;;;4885415;29;20130;-90
2023/11/01 01:06:57;;;;;;;3.17;0.90;;;8.80;99.90;;;;;;4885313;29;20032;-89
2023/11/01 01:09:23;;;;;;;1.90;0.70;;;8.80;99.90;;;;;;4885611;29;20029;-90
2023/11/01 01:11:48;;;;;;;2.53;0.80;;;8.90;99.90;;;;;;4885661;29;21008;-91
2023/11/01 01:14:15;;;;;;;1.50;0.67;;;8.90;99.90;;;;;;4885086;29;20033;-90
2023/11/01 01:16:41;;;;;;;2.37;0.80;;;8.90;99.90;;;;;;4885475;29;20154;-90
2023/11/01 01:19:06;;;;;;;2.73;0.80;;;9.00;99.90;;;;;;4885624;29;20488;-91
2023/11/01 01:21:32;;;;;;;1.97;0.80;;;9.00;99.90;;;;;;4885394;29;20036;-90
2023/11/01 01:23:58;;;;;;;1.10;0.77;;;9.00;99.90;;;;;;4884663;29;20044;-91
2023/11/01 01:26:24;;;;;;;4.93;1.10;;;9.10;99.90;;;;;;4884100;29;20061;-91
2023/11/01 01:28:49;;;;;;;3.70;0.70;;;9.10;99.90;;;;;;4885676;29;20357;-90
2023/11/01 01:31:15;;;;;;;1.20;0.60;;;9.10;99.90;;;;;;4885110;29;20152;-91
2023/11/01 01:33:44;;;;;;;2.53;0.80;;;9.10;99.90;;;;;;4885662;29;21457;-90
2023/11/01 01:36:10;;;;;;;1.77;0.70;;;9.10;99.90;;;;;;4885228;29;20111;-90
2023/11/01 01:38:36;;;;;;;1.70;0.80;;;9.10;99.90;;;;;;4885199;29;20097;-90
2023/11/01 01:41:02;;;;;;;2.83;0.87;;;9.20;99.90;;;;;;4884994;29;20049;-90
2023/11/01 01:43:27;;;;;;;1.67;0.80;;;9.20;99.90;;;;;;4885006;29;20036;-90
2023/11/01 01:46:13;;;;;;;2.47;0.87;;;9.20;99.90;;;;;;4884882;29;20040;-90
2023/11/01 01:48:40;;;;;;;4.80;1.00;;;9.20;99.90;;;;;;4874493;29;21632;-89
2023/11/01 01:51:06;;;;;;;3.07;0.70;;;9.20;99.90;;;;;;4893304;29;20035;-91
2023/11/01 01:53:35;;;;;;;4.33;1.63;;;9.20;99.90;;;;;;4895506;29;20047;-90
2023/11/01 01:56:00;;;;;;;1.27;0.63;;;9.20;99.90;;;;;;4887450;29;20048;-91
2023/11/01 01:58:27;;;;;;;3.13;0.80;;;9.20;99.90;;;;;;4888286;29;20131;-90
2023/11/01 02:00:55;;;;;;;1.93;0.90;;;9.20;99.90;;;;;;4888367;29;20492;-90
2023/11/01 02:03:20;;;;;;;3.77;0.73;;;9.20;99.90;;;;;;4887251;29;20029;-90
2023/11/01 02:05:48;;;;;;;3.63;1.00;;;9.30;99.90;;;;;;4888118;29;20441;-89
2023/11/01 02:08:14;;;;;;;3.60;0.90;;;9.30;99.90;;;;;;4888313;29;20057;-91
2023/11/01 02:10:41;;;;;;;1.27;0.70;;;9.30;99.90;;;;;;4888326;29;20123;-90
2023/11/01 02:13:14;;;;;;;2.50;0.87;;;9.30;99.90;;;;;;4888637;29;20028;-89
2023/11/01 02:15:41;;;;;;;2.00;0.90;;;9.30;99.90;;;;;;4887836;29;20037;-91
2023/11/01 02:18:06;;;;;;;3.13;0.80;;;9.30;99.90;;;;;;4888921;29;20024;-90
2023/11/01 02:20:37;;;;;;;2.83;0.77;;;9.30;99.90;;;;;;4888027;29;20040;-91
2023/11/01 02:23:07;;;;;;;0.77;0.67;;;9.30;99.90;;;;;;4888229;29;20037;-90
2023/11/01 02:25:32;;;;;;;1.97;0.70;;;9.30;99.90;;;;;;4887223;29;20058;-90
2023/11/01 02:27:58;;;;;;;0.70;0.68;;;9.30;99.90;;;;;;4888097;29;20088;-90
2023/11/01 02:30:24;;;;;;;2.40;0.70;;;9.30;99.90;;;;;;4887866;29;20389;-90
2023/11/01 02:32:53;;;;;;;2.53;0.73;;;9.20;99.90;;;;;;4888381;29;20395;-90
2023/11/01 02:35:19;;;;;;;2.73;0.77;;;9.20;99.90;;;;;;4871287;29;20416;-89
2023/11/01 02:37:45;;;;;;;1.13;0.70;;;9.20;99.90;;;;;;4888080;29;20120;-90
2023/11/01 02:40:11;;;;;;;2.00;0.70;;;9.10;99.90;;;;;;4887828;29;20051;-90
2023/11/01 02:42:41;;;;;;;2.80;0.80;;;9.10;99.90;;;;;;4888815;29;20500;-90
2023/11/01 02:45:10;;;;;;;3.60;0.70;;;9.10;99.90;;;;;;4888875;29;20029;-89
2023/11/01 02:47:39;;;;;;;4.10;0.80;;;9.00;99.90;;;;;;4890729;29;20032;-90
2023/11/01 02:50:09;;;;;;;1.87;0.83;;;9.00;99.90;;;;;;4877159;29;20036;-90
2023/11/01 02:52:40;;;;;;;2.17;0.80;;;9.00;99.90;;;;;;4895585;29;20029;-90
2023/11/01 02:55:11;;;;;;;1.70;0.80;;;8.90;99.90;;;;;;4893189;29;20028;-90
2023/11/01 02:57:37;;;;;;;2.00;0.80;;;8.90;99.90;;;;;;4895911;29;20402;-91
2023/11/01 03:00:06;;;;;;;2.43;0.60;;;8.80;99.90;;;;;;4901737;29;20037;-91
2023/11/01 03:02:32;;;;;;;1.47;0.77;;;8.70;99.90;;;;;;4918408;29;20013;-92
2023/11/01 03:04:58;;;;;;;2.90;0.87;;;8.70;99.90;;;;;;4922112;29;20012;-92
2023/11/01 03:07:23;;;;;;;2.00;0.80;;;8.60;99.90;;;;;;4918260;29;20064;-89
2023/11/01 03:09:49;;;;;;;5.17;2.33;;;8.60;99.90;;;;;;4896215;29;20064;-90
2023/11/01 03:12:15;;;;;;;2.70;0.80;;;8.50;99.90;;;;;;4887890;29;20071;-90
2023/11/01 03:14:41;;;;;;;2.93;0.97;;;8.40;99.90;;;;;;4886669;29;20103;-90
2023/11/01 03:17:07;;;;;;;2.43;0.73;;;8.30;99.90;;;;;;4885531;29;20040;-90
2023/11/01 03:19:33;;;;;;;2.13;0.70;;;8.30;99.90;;;;;;4886309;29;20028;-90
2023/11/01 03:21:58;;;;;;;1.70;0.80;;;8.30;99.90;;;;;;4886512;29;20680;-91
2023/11/01 03:24:24;;;;;;;4.47;0.90;;;8.20;99.90;;;;;;4886471;29;20033;-90
2023/11/01 03:26:50;;;;;;;1.63;0.70;;;8.10;99.90;;;;;;4886382;29;20020;-89
2023/11/01 03:29:16;;;;;;;2.63;0.80;;;8.10;99.90;;;;;;4887724;29;20084;-90
2023/11/01 03:31:42;;;;;;;2.37;0.80;;;8.00;99.90;;;;;;4885741;29;20056;-90
2023/11/01 03:34:08;;;;;;;2.30;0.70;;;8.00;99.90;;;;;;4885979;29;20480;-90
2023/11/01 03:36:34;;;;;;;3.30;0.80;;;7.90;99.90;;;;;;4885425;29;20115;-90
2023/11/01 03:38:59;;;;;;;1.67;0.70;;;7.90;99.90;;;;;;4886430;29;20495;-90
2023/11/01 03:41:25;;;;;;;1.73;0.80;;;7.90;99.90;;;;;;4886486;29;20088;-90
2023/11/01 03:43:51;;;;;;;4.10;0.90;;;7.90;99.90;;;;;;4885794;29;21256;-91
2023/11/01 03:46:16;;;;;;;4.43;0.70;;;7.80;99.90;;;;;;4885628;29;20107;-90
2023/11/01 03:48:42;;;;;;;1.90;0.80;;;7.80;99.90;;;;;;4885789;29;20025;-92
2023/11/01 03:51:07;;;;;;;1.63;0.80;;;7.80;99.90;;;;;;4885735;29;20037;-90
2023/11/01 03:53:33;;;;;;;2.97;0.73;;;7.80;99.90;;;;;;4885584;29;20036;-91
2023/11/01 03:55:58;;;;;;;1.90;0.80;;;7.80;99.90;;;;;;4885342;29;20029;-89
2023/11/01 03:58:24;;;;;;;1.90;0.70;;;7.70;99.90;;;;;;4885917;29;20407;-89
2023/11/01 04:00:50;;;;;;;1.63;0.67;;;7.70;99.90;;;;;;4886134;29;20032;-90
2023/11/01 04:03:16;;;;;;;3.40;0.70;;;7.70;99.90;;;;;;4885873;29;20025;-91
2023/11/01 04:05:41;;;;;;;2.97;0.70;;;7.70;99.90;;;;;;4885631;29;20039;-90
2023/11/01 04:08:07;;;;;;;2.77;0.87;;;7.70;99.90;;;;;;4869290;29;20161;-93
2023/11/01 04:10:32;;;;;;;2.40;0.73;;;7.60;99.90;;;;;;4885518;29;20029;-90
2023/11/01 04:12:58;;;;;;;2.30;1.00;;;7.60;99.90;;;;;;4885621;29;20032;-90
2023/11/01 04:15:28;;;;;;;1.00;0.70;;;7.60;99.90;;;;;;4884451;29;20033;-90
2023/11/01 04:17:53;;;;;;;2.23;0.90;;;7.70;99.90;;;;;;4886265;29;21239;-88
2023/11/01 04:20:19;;;;;;;1.80;0.80;;;7.70;99.90;;;;;;4886574;29;20037;-90
2023/11/01 04:22:44;;;;;;;2.97;1.00;;;7.60;99.90;;;;;;4886274;29;20029;-90
2023/11/01 04:25:10;;;;;;;4.00;0.80;;;7.60;99.90;;;;;;4885406;29;20124;-90
2023/11/01 04:27:42;;;;;;;1.73;1.00;;;7.60;99.90;;;;;;4885168;29;20033;-90
2023/11/01 04:30:12;;;;;;;3.83;0.70;;;7.60;99.90;;;;;;4885769;29;20043;-90
2023/11/01 04:32:38;;;;;;;1.87;0.83;;;7.60;99.90;;;;;;4871700;29;20087;-90
2023/11/01 04:35:09;;;;;;;3.33;0.90;;;7.50;99.90;;;;;;4885050;29;20520;-90
2023/11/01 04:37:38;;;;;;;1.60;0.90;;;7.50;99.90;;;;;;4886119;29;21323;-90
2023/11/01 04:40:11;;;;;;;3.10;0.77;;;7.50;99.90;;;;;;4885121;29;20067;-90
2023/11/01 04:42:41;;;;;;;1.23;0.80;;;7.50;99.90;;;;;;4884766;29;20075;-90
2023/11/01 04:45:08;;;;;;;2.17;0.90;;;7.50;99.90;;;;;;4884723;29;20614;-90
2023/11/01 04:47:38;;;;;;;0.87;0.80;;;7.50;99.90;;;;;;4885098;29;20107;-89
2023/11/01 04:50:08;;;;;;;1.20;0.70;;;7.50;99.90;;;;;;4885243;29;20021;-90
2023/11/01 04:52:40;;;;;;;2.27;0.70;;;7.50;99.90;;;;;;4885405;29;20059;-91
2023/11/01 04:55:08;;;;;;;2.50;0.73;;;7.50;99.90;;;;;;4867446;29;20064;-91
2023/11/01 04:57:34;;;;;;;0.70;0.70;;;7.50;99.90;;;;;;4884634;29;20036;-90
2023/11/01 05:00:00;;;;;;;2.80;0.70;;;7.50;99.90;;;;;;4885030;29;20036;-90
2023/11/01 05:02:26;;;;;;;2.27;0.80;;;7.40;99.90;;;;;;4885156;29;20039;-91
2023/11/01 05:04:51;;;;;;;1.83;0.70;;;7.40;99.90;;;;;;4885022;29;20037;-90
2023/11/01 05:07:17;;;;;;;2.03;0.80;;;7.40;99.90;;;;;;4885388;29;20036;-90
2023/11/01 05:09:42;;;;;;;1.00;0.77;;;7.40;99.90;;;;;;4885538;29;20033;-89
2023/11/01 05:12:08;;;;;;;0.87;0.60;;;7.40;99.90;;;;;;4885410;29;20032;-91
2023/11/01 05:14:34;;;;;;;0.87;0.70;;;7.30;99.90;;;;;;4885552;29;21463;-91
2023/11/01 05:17:00;;;;;;;2.67;0.80;;;7.30;99.90;;;;;;4885611;29;20073;-90
2023/11/01 05:19:25;;;;;;;1.33;0.80;;;7.30;99.90;;;;;;4885498;29;20029;-89
2023/11/01 05:21:51;;;;;;;0.97;0.80;;;7.20;99.90;;;;;;4885572;29;20040;-90
2023/11/01 05:24:17;;;;;;;0.70;0.70;;;7.20;99.90;;;;;;4885192;29;20071;-90
2023/11/01 05:26:43;;;;;;;5.00;0.80;;;7.20;99.90;;;;;;4886969;29;21379;-90
2023/11/01 05:29:09;;;;;;;2.80;0.80;;;7.10;99.90;;;;;;4889209;29;20040;-90
2023/11/01 05:31:35;;;;;;;1.33;0.80;;;7.10;99.90;;;;;;4889305;29;20028;-89
2023/11/01 05:34:01;;;;;;;1.37;0.80;;;7.10;99.90;;;;;;4889176;29;20044;-89
2023/11/01 05:36:27;;;;;;;1.53;0.93;;;7.00;99.90;;;;;;4889281;29;20259;-90
2023/11/01 05:38:53;;;;;;;1.83;0.80;;;7.00;99.90;;;;;;4890087;29;20040;-90
2023/11/01 05:41:19;;;;;;;1.40;1.00;;;7.00;99.90;;;;;;4895802;29;20044;-90
2023/11/01 05:43:45;;;;;;;1.23;0.83;;;6.90;99.90;;;;;;4897184;29;20039;-90
2023/11/01 05:46:10;;;;;;;0.90;0.60;;;6.90;99.90;;;;;;4896586;29;20044;-92
2023/11/01 05:48:36;;;;;;;2.60;0.90;;;6.90;99.90;;;;;;4893080;29;20586;-89
2023/11/01 05:51:03;;;;;;;0.90;0.80;;;6.90;99.90;;;;;;4894674;29;20056;-89
2023/11/01 05:53:29;;;;;;;1.77;0.90;;;6.80;99.90;;;;;;4895780;29;20073;-89
2023/11/01 05:55:54;;;;;;;3.37;0.90;;;6.80;99.90;;;;;;4900685;29;20028;-92
2023/11/01 05:58:21;;;;;;;2.43;0.90;;;6.80;99.90;;;;;;4920729;29;20252;-92
2023/11/01 06:00:47;;;;;;;2.60;1.10;;;6.70;99.90;;;;;;4923763;29;20044;-92
2023/11/01 06:03:15;;;;;;;1.10;0.80;;;6.70;99.90;;;;;;4915833;29;20028;-89
2023/11/01 06:05:41;;;;;;;1.73;1.20;;;6.70;99.90;;;;;;4889442;29;20036;-90
2023/11/01 06:08:10;;;;;;;5.27;2.67;;;6.70;99.90;;;;;;4889713;29;20763;-90
2023/11/01 06:10:35;;;;;;;23.43;13.33;;;6.70;99.90;;;;;;4893255;29;20040;-90
2023/11/01 06:13:02;;;;;;;8.90;3.70;;;6.70;99.90;;;;;;4894645;29;20396;-89
2023/11/01 06:15:27;;;;;;;2.87;1.60;;;6.60;99.90;;;;;;4887095;29;20179;-90
2023/11/01 06:17:53;;;;;;;1.70;1.00;;;6.60;99.90;;;;;;4887758;29;21666;-90
2023/11/01 06:20:19;;;;;;;2.17;1.07;;;6.50;99.90;;;;;;4887493;29;20381;-90
2023/11/01 06:22:45;;;;;;;2.00;1.17;;;6.50;99.90;;;;;;4886739;29;21294;-91
2023/11/01 06:25:11;;;;;;;2.20;1.20;;;6.40;99.90;;;;;;4886109;29;20036;-90
2023/11/01 06:27:37;;;;;;;1.80;1.00;;;6.40;99.90;;;;;;4886934;29;20151;-90
2023/11/01 06:30:06;;;;;;;2.07;1.70;;;6.40;99.90;;;;;;4885165;29;20037;-90
2023/11/01 06:32:32;;;;;;;2.00;1.37;;;6.40;99.90;;;;;;4885691;29;20956;-91
2023/11/01 06:34:59;;;;;;;2.70;1.20;;;6.40;99.90;;;;;;4883300;29;20049;-91
2023/11/01 06:37:25;;;;;;;1.90;1.20;;;6.40;99.90;;;;;;4887681;29;20136;-91
2023/11/01 06:39:50;;;;;;;1.60;1.20;;;6.40;99.90;;;;;;4893706;29;20048;-89
2023/11/01 06:42:16;;;;;;;4.97;1.47;;;6.40;99.90;;;;;;4896196;29;20037;-90
2023/11/01 06:44:42;;;;;;;3.40;2.00;;;6.40;99.90;;;;;;4888401;29;20134;-91
2023/11/01 06:47:07;;;;;;;3.60;1.83;;;6.40;99.90;;;;;;4897084;29;20040;-90
2023/11/01 06:49:37;;;;;;;2.83;1.47;;;6.40;99.90;;;;;;4886539;29;20033;-89
2023/11/01 06:52:04;;;;;;;1.90;1.20;;;6.40;99.90;;;;;;4886644;29;20044;-90
2023/11/01 06:54:30;;;;;;;2.17;1.20;;;6.50;99.90;;;;;;4885055;29;20441;-89
2023/11/01 06:56:56;;;;;;;5.43;1.00;;;6.50;99.90;;;;;;4885791;29;20021;-89
2023/11/01 06:59:22;;;;;;;2.20;1.10;;;6.50;99.90;;;;;;4885529;29;20040;-91
2023/11/01 07:01:47;;;;;;;1.47;0.90;;;6.60;99.90;;;;;;4885643;29;20407;-90
2023/11/01 07:04:13;;;;;;;1.60;1.07;;;6.60;99.90;;;;;;4885734;29;20028;-90
2023/11/01 07:06:41;;;;;;;1.47;1.00;;;6.70;99.90;;;;;;4886049;29;20029;-91
2023/11/01 07:09:07;;;;;;;0.90;0.77;;;6.70;99.90;;;;;;4868086;29;20048;-89
2023/11/01 07:11:34;;;;;;;4.77;1.83;;;6.70;99.90;;;;;;4889358;29;20036;-90
2023/11/01 07:14:00;;;;;;;2.97;1.87;;;6.70;99.90;;;;;;4886758;29;20208;-88
2023/11/01 07:16:25;;;;;;;2.53;1.70;;;6.80;99.90;;;;;;4886497;29;20028;-88
2023/11/01 07:18:51;;;;;;;2.30;1.13;;;6.80;99.90;;;;;;4887211;29;20039;-87
2023/11/01 07:21:16;;;;;;;2.00;1.10;;;6.90;99.90;;;;;;4888066;29;20036;-81
2023/11/01 07:23:43;;;;;;;1.33;1.00;;;6.90;99.90;;;;;;4885875;29;20046;-87
2023/11/01 07:26:09;;;;;;;1.77;0.90;;;7.00;99.90;;;;;;4885673;29;20033;-87
2023/11/01 07:28:35;;;;;;;1.10;0.90;;;7.00;99.90;;;;;;4882085;29;20084;-89
2023/11/01 07:31:00;;;;;;;3.60;1.20;;;7.10;99.90;;;;;;4886072;29;21302;-89
2023/11/01 07:33:26;;;;;;;3.60;1.90;;;7.20;99.90;;;;;;4885657;29;20032;-82
2023/11/01 07:35:52;;;;;;;2.87;1.50;;;7.30;99.90;;;;;;4886843;29;20061;-83
2023/11/01 07:38:17;;;;;;;1.43;1.07;;;7.30;99.90;;;;;;4885627;29;20032;-89
2023/11/01 07:40:43;;;;;;;2.20;1.20;;;7.50;99.90;;;;;;4884047;29;20032;-89
2023/11/01 07:43:12;;;;;;;2.77;1.47;;;7.60;99.90;;;;;;4885096;29;20029;-89
2023/11/01 07:45:37;;;;;;;2.33;1.37;;;7.70;99.90;;;;;;4884890;29;20067;-90
2023/11/01 07:48:03;;;;;;;3.30;1.00;;;7.80;99.90;;;;;;4885390;29;20456;-87
2023/11/01 07:50:29;;;;;;;1.97;1.03;;;7.90;99.90;;;;;;4886535;29;20412;-87
2023/11/01 07:52:54;;;;;;;1.60;0.70;;;8.10;99.90;;;;;;4884960;29;20397;-89
2023/11/01 07:55:20;;;;;;;1.10;0.70;;;8.30;99.90;;;;;;4886695;29;20047;-86
2023/11/01 07:57:46;;;;;;;1.67;0.77;;;8.40;99.90;;;;;;4889037;29;20028;-86
2023/11/01 08:00:13;;;;;;;1.00;0.80;;;8.60;99.90;;;;;;4887364;29;20044;-86
2023/11/01 08:02:40;;;;;;;1.27;0.80;;;8.80;99.90;;;;;;4888346;29;20036;-86
2023/11/01 08:05:05;;;;;;;0.67;0.60;;;9.00;99.90;;;;;;4886493;29;20115;-84
2023/11/01 08:07:35;;;;;;;2.70;0.77;;;9.10;99.90;;;;;;4888631;29;20477;-77
2023/11/01 08:10:01;;;;;;;2.27;1.00;;;9.30;99.90;;;;;;4887842;29;20063;-81
2023/11/01 08:12:27;;;;;;;3.07;1.00;;;9.40;99.90;;;;;;4888919;29;20104;-84
2023/11/01 08:14:53;;;;;;;3.53;1.63;;;9.60;99.90;;;;;;4887441;29;20090;-84
2023/11/01 08:17:18;;;;;;;2.88;1.67;;;9.80;99.90;;;;;;4888550;29;20032;-84
2023/11/01 08:19:44;;;;;;;2.93;1.00;;;9.90;99.90;;;;;;4888275;29;20758;-85
2023/11/01 08:22:13;;;;;;;3.80;0.97;;;10.10;99.90;;;;;;4887758;29;20116;-83
2023/11/01 08:24:43;;;;;;;1.97;1.00;;;10.20;99.90;;;;;;4887981;29;20032;-83
2023/11/01 08:27:08;;;;;;;1.52;0.70;;;10.30;99.90;;;;;;4885860;29;20039;-85
2023/11/01 08:29:35;;;;;;;1.05;0.70;;;10.50;99.90;;;;;;4887716;29;20044;-83
2023/11/01 08:32:02;;;;;;;0.88;0.60;;;10.70;99.90;;;;;;4888317;29;20536;-84
2023/11/01 08:34:28;;;;;;;1.67;0.90;;;10.80;99.90;;;;;;4887735;29;20087;-74
2023/11/01 08:36:53;;;;;;;1.75;0.80;;;11.00;99.90;;;;;;4882762;29;20036;-76
2023/11/01 08:39:19;;;;;;;2.67;0.70;;;11.10;99.90;;;;;;4887785;29;20039;-83
2023/11/01 08:41:44;;;;;;;1.70;1.10;;;11.30;99.90;;;;;;4887728;29;20032;-84
2023/11/01 08:44:10;;;;;;;4.53;1.70;;;11.40;99.90;;;;;;4890237;29;20551;-84
2023/11/01 08:46:36;;;;;;;2.05;1.02;;;11.60;99.90;;;;;;4890257;29;20032;-83
2023/11/01 08:49:01;;;;;;;1.17;0.70;;;11.60;99.90;;;;;;4893563;29;20410;-77
2023/11/01 08:51:30;;;;;;;4.00;2.83;;;11.70;99.90;;;;;;4904280;29;20114;-86
2023/11/01 08:53:59;;;;;;;2.97;1.55;;;11.80;99.90;;;;;;4902846;29;20021;-82
2023/11/01 08:56:25;;;;;;;4.05;1.45;;;11.90;99.90;;;;;;4905985;29;20169;-80
2023/11/01 08:58:51;;;;;;;1.63;0.90;;;11.90;99.90;;;;;;4893987;29;20903;-82
2023/11/01 09:01:17;;;;;;;5.18;3.70;;;11.90;99.90;;;;;;4893089;29;20034;-81
2023/11/01 09:03:43;;;;;;;1.48;0.88;;;12.00;99.90;;;;;;4890765;29;20033;-82
2023/11/01 09:06:08;;;;;;;1.95;0.75;;;12.00;99.90;;;;;;4889763;29;20037;-84
2023/11/01 09:08:34;;;;;;;1.33;0.70;;;12.00;99.90;;;;;;4889041;29;20614;-83
2023/11/01 09:11:02;;;;;;;12.57;7.45;;;12.10;99.90;;;;;;4889306;29;20500;-83
2023/11/01 09:13:28;;;;;;;60.30;33.60;;;12.10;99.90;;;;;;4888512;29;20111;-83
2023/11/01 09:15:53;;;;;;;11.75;6.25;;;12.10;99.90;;;;;;4888942;29;20145;-84
2023/11/01 09:18:20;;;;;;;42.40;22.77;;;12.10;99.90;;;;;;4889943;29;20111;-83
2023/11/01 09:20:46;;;;;;;12.15;7.45;;;12.10;99.90;;;;;;4890930;29;20028;-85
2023/11/01 09:23:11;;;;;;;53.63;29.67;;;12.10;99.90;;;;;;4891236;29;20035;-85
2023/11/01 09:25:38;;;;;;;107.72;65.22;;;12.20;99.90;;;;;;4887714;29;20041;-86
2023/11/01 09:28:04;;;;;;;15.98;10.00;;;12.20;99.90;;;;;;4880125;29;20037;-84
2023/11/01 09:30:29;;;;;;;5.75;3.38;;;12.20;99.90;;;;;;4884071;29;20053;-84
2023/11/01 09:32:55;;;;;;;6.20;3.22;;;12.30;99.90;;;;;;4883422;29;20164;-85
2023/11/01 09:35:21;;;;;;;2.45;1.08;;;12.30;99.90;;;;;;4887068;29;20500;-87
2023/11/01 09:37:46;;;;;;;3.85;2.28;;;12.30;99.90;;;;;;4887521;29;20072;-86
2023/11/01 09:40:12;;;;;;;3.78;2.00;;;12.30;99.90;;;;;;4885799;29;20044;-86
2023/11/01 09:42:38;;;;;;;1.83;1.30;;;12.40;99.90;;;;;;4886628;29;20033;-86
2023/11/01 09:45:09;;;;;;;1.33;0.80;;;12.40;99.90;;;;;;4888915;29;20039;-82
2023/11/01 09:47:39;;;;;;;1.35;0.70;;;12.50;99.90;;;;;;4889669;29;20076;-85
2023/11/01 09:50:08;;;;;;;3.17;0.90;;;12.60;99.90;;;;;;4885059;29;20887;-86
2023/11/01 09:52:35;;;;;;;1.85;0.88;;;12.70;99.90;;;;;;4885365;29;20143;-87
2023/11/01 09:55:02;;;;;;;3.50;0.90;;;12.80;99.90;;;;;;4885019;29;20041;-86
2023/11/01 09:57:29;;;;;;;2.78;1.05;;;12.90;99.90;;;;;;4883150;29;20036;-86
2023/11/01 09:59:56;;;;;;;1.73;0.77;;;12.90;99.90;;;;;;4882590;29;21409;-90
2023/11/01 10:02:22;;;;;;;2.42;0.98;;;13.00;99.90;;;;;;4882374;29;20036;-89
2023/11/01 10:04:50;;;;;;;2.85;1.00;;;13.10;99.90;;;;;;4882914;29;20032;-88
2023/11/01 10:07:15;;;;;;;2.33;1.10;;;13.20;99.90;;;;;;4881785;29;20033;-90
2023/11/01 10:09:42;;;;;;;2.67;1.10;;;13.30;99.90;;;;;;4881706;29;20079;-88
2023/11/01 10:12:08;;;;;;;2.08;0.85;;;13.40;99.90;;;;;;4880655;29;20036;-89
2023/11/01 10:14:35;;;;;;;2.00;0.80;;;13.50;99.90;;;;;;4882087;29;20092;-86
2023/11/01 10:17:02;;;;;;;3.28;0.82;;;13.60;99.90;;;;;;4884276;29;20028;-86
2023/11/01 10:19:28;;;;;;;1.45;0.80;;;13.60;99.90;;;;;;4888209;29;20076;-91
2023/11/01 10:21:55;;;;;;;4.15;1.08;;;13.70;99.90;;;;;;4888535;29;20025;-89
2023/11/01 10:24:28;;;;;;;1.67;0.80;;;13.80;99.90;;;;;;4890890;29;20027;-88
2023/11/01 10:26:56;;;;;;;1.25;0.82;;;13.90;99.90;;;;;;4888952;29;20028;-85
2023/11/01 10:29:23;;;;;;;2.75;0.80;;;13.90;99.90;;;;;;4890890;29;20043;-87
2023/11/01 10:31:55;;;;;;;1.80;0.93;;;14.00;99.90;;;;;;4890504;29;20048;-85
2023/11/01 10:34:28;;;;;;;3.17;1.48;;;14.10;99.90;;;;;;4890972;29;20025;-85
2023/11/01 10:36:54;;;;;;;0.88;0.70;;;14.20;99.90;;;;;;4892654;29;20033;-86
2023/11/01 10:39:21;;;;;;;4.43;1.00;;;14.20;99.90;;;;;;4893001;29;20071;-88
2023/11/01 10:41:49;;;;;;;2.53;1.00;;;14.30;99.90;;;;;;4892641;29;21611;-85
2023/11/01 10:44:15;;;;;;;4.47;0.90;;;14.40;99.90;;;;;;4890945;29;20052;-88
2023/11/01 10:46:41;;;;;;;2.28;0.80;;;14.50;99.90;;;;;;4890071;29;20509;-85
2023/11/01 10:49:14;;;;;;;5.78;1.23;;;14.50;99.90;;;;;;4892031;29;20139;-84
2023/11/01 10:51:41;;;;;;;3.38;1.00;;;14.60;99.90;;;;;;4894578;29;20183;-85
2023/11/01 10:54:07;;;;;;;2.45;0.60;;;14.60;99.90;;;;;;4893140;29;20084;-87
2023/11/01 10:56:33;;;;;;;2.72;0.70;;;14.70;99.90;;;;;;4892946;29;20033;-85
2023/11/01 10:59:41;;;;;;;1.77;0.80;;;14.70;99.90;;;;;;4891077;29;20061;-87
2023/11/01 11:02:19;;;;;;;3.10;0.90;;;14.80;99.90;;;;;;4836138;29;20818;-84
2023/11/01 11:05:05;;;;;;;2.78;1.05;;;14.90;99.90;;;;;;4836737;29;20943;-85
2023/11/01 11:07:48;;;;;;;1.73;0.65;;;15.00;99.90;;;;;;4877253;29;20040;-85
2023/11/01 11:10:32;;;;;;;2.20;0.80;;;15.00;99.90;;;;;;4889949;29;20040;-84
2023/11/01 11:15:47;;;;;;;2.75;0.80;;;15.20;99.90;;;;;;4890469;29;20040;-85
2023/11/01 11:18:21;;;;;;;2.85;0.80;;;15.30;99.90;;;;;;4888861;29;20048;-86
2023/11/01 11:20:47;;;;;;;1.88;0.80;;;15.30;99.90;;;;;;4889584;29;20149;-86
2023/11/01 11:23:14;;;;;;;2.08;0.90;;;15.30;99.90;;;;;;4889336;29;20029;-86
2023/11/01 11:25:48;;;;;;;2.72;0.93;;;15.40;99.90;;;;;;4889071;29;20040;-85
2023/11/01 11:28:24;;;;;;;2.13;0.80;;;15.40;99.90;;;;;;4889596;29;20037;-86
2023/11/01 11:31:03;;;;;;;3.08;0.80;;;15.40;99.90;;;;;;4891985;29;20153;-88
2023/11/01 11:33:31;;;;;;;2.35;0.90;;;15.40;99.90;;;;;;4891648;29;20511;-85
2023/11/01 11:36:16;;;;;;;2.78;0.90;;;15.50;99.90;;;;;;4890915;29;20119;-85
2023/11/01 11:38:55;;;;;;;1.65;0.80;;;15.50;99.90;;;;;;4890679;29;20965;-87
2023/11/01 11:41:20;;;;;;;3.15;1.20;;;15.50;99.90;;;;;;4892375;29;20021;-85
2023/11/01 11:44:11;;;;;;;1.58;0.77;;;15.50;99.90;;;;;;4889590;29;20080;-84
2023/11/01 11:47:01;;;;;;;1.52;0.82;;;15.40;99.90;;;;;;5100275;27;20435;-85
2023/11/01 11:49:28;;;;;;;1.48;0.73;;;15.40;99.90;;;;;;5103752;28;20028;-85
2023/11/01 11:51:55;;;;;;;0.95;0.70;;;15.30;99.90;;;;;;5106613;28;20022;-86
2023/11/01 11:54:22;;;;;;;4.60;1.00;;;15.10;99.90;;;;;;5099216;28;20028;-85
2023/11/01 11:56:56;;;;;;;1.63;1.00;;;15.10;99.90;;;;;;5087551;28;20024;-84
2023/11/01 11:59:24;;;;;;;1.45;0.73;;;15.10;99.90;;;;;;5086497;28;20399;-85
2023/11/01 12:01:52;;;;;;;2.00;0.80;;;15.00;99.90;;;;;;5085881;28;20059;-87
2023/11/01 12:04:18;;;;;;;2.17;0.75;;;15.10;99.90;;;;;;5086114;28;20028;-87
2023/11/01 12:06:50;;;;;;;1.45;0.65;;;15.20;99.90;;;;;;5085863;28;20044;-85
2023/11/01 12:09:23;;;;;;;0.70;0.50;;;15.40;99.90;;;;;;5085998;28;20105;-85
2023/11/01 12:11:55;;;;;;;1.45;0.60;;;15.60;99.90;;;;;;5087339;28;20056;-85
2023/11/01 12:14:27;;;;;;;1.00;0.80;;;15.80;99.90;;;;;;5084391;28;20831;-85
2023/11/01 12:16:55;;;;;;;1.23;0.60;;;15.90;99.90;;;;;;5082230;28;20052;-81
2023/11/01 12:19:22;;;;;;;1.95;0.90;;;16.10;99.90;;;;;;5081027;28;20056;-82
2023/11/01 12:21:58;;;;;;;2.30;0.75;;;16.20;99.90;;;;;;5082567;28;20036;-83
2023/11/01 12:24:28;;;;;;;2.40;0.82;;;16.30;99.90;;;;;;5084776;28;20114;-85
2023/11/01 12:27:13;;;;;;;2.38;1.10;;;16.30;99.90;;;;;;5084225;28;20043;-83
2023/11/01 12:29:41;;;;;;;6.80;1.30;;;16.30;99.90;;;;;;5083510;28;20044;-85
2023/11/01 12:32:33;;;;;;;2.63;0.70;;;16.20;99.90;;;;;;5085480;28;20066;-84
2023/11/01 12:35:04;;;;;;;2.92;1.00;;;16.20;99.90;;;;;;5085460;28;20064;-85
2023/11/01 12:37:31;;;;;;;1.60;0.95;;;16.20;99.90;;;;;;5085999;28;21534;-85
2023/11/01 12:40:15;;;;;;;3.10;0.70;;;16.10;99.90;;;;;;5085504;28;20024;-83
2023/11/01 12:42:43;;;;;;;1.00;0.60;;;16.10;99.90;;;;;;5085800;28;20035;-81
2023/11/01 12:45:10;;;;;;;1.73;0.80;;;16.00;99.90;;;;;;5085913;28;20062;-83
2023/11/01 12:47:47;;;;;;;3.40;1.00;;;16.10;99.90;;;;;;5088467;28;21332;-85
2023/11/01 12:50:20;;;;;;;0.77;0.63;;;16.10;99.90;;;;;;5089058;28;20093;-85
2023/11/01 12:52:47;;;;;;;1.45;0.60;;;16.20;99.90;;;;;;5085259;28;20052;-84
2023/11/01 12:55:13;;;;;;;2.50;0.65;;;16.20;99.90;;;;;;5083263;28;20090;-83
2023/11/01 12:57:42;;;;;;;2.20;0.75;;;16.30;99.90;;;;;;5073689;28;20525;-83